createdAt,value
2022-09-24T00:02:29.815Z,30.10
2022-09-24T00:06:21.752Z,34.40
2022-09-24T00:10:15.453Z,34.70
2022-09-24T00:14:00.696Z,34.80
2022-09-24T00:18:04.755Z,33.60
2022-09-24T00:22:00.277Z,31.90
2022-09-24T00:26:02.426Z,33.80
2022-09-24T00:29:44.532Z,35.20
2022-09-24T00:33:51.441Z,32.10
2022-09-24T00:37:48.155Z,32.80
2022-09-24T00:41:52.919Z,33.10
2022-09-24T00:45:58.853Z,32.00
2022-09-24T00:50:03.436Z,34.50
2022-09-24T00:54:13.509Z,31.00
2022-09-24T00:58:11.640Z,33.30
2022-09-24T01:02:00.960Z,31.20
2022-09-24T01:05:57.766Z,32.00
2022-09-24T01:09:45.717Z,31.70
2022-09-24T01:13:53.107Z,32.70
2022-09-24T01:17:59.961Z,27.30
2022-09-24T01:22:18.685Z,30.90
2022-09-24T01:26:28.840Z,29.60
2022-09-24T01:30:21.558Z,31.70
2022-09-24T01:34:01.513Z,31.00
2022-09-24T01:37:55.803Z,28.40
2022-09-24T01:41:59.773Z,27.50
2022-09-24T01:45:43.278Z,31.50
2022-09-24T01:49:40.730Z,28.00
2022-09-24T01:53:56.685Z,30.10
2022-09-24T01:57:50.143Z,29.50
2022-09-24T02:01:46.057Z,28.70
2022-09-24T02:05:40.155Z,26.10
2022-09-24T02:09:43.594Z,30.70
2022-09-24T02:13:31.108Z,29.30
2022-09-24T02:17:26.842Z,33.30
2022-09-24T02:20:51.046Z,27.60
2022-09-24T02:25:05.748Z,27.80
2022-09-24T02:28:56.681Z,31.10
2022-09-24T02:32:52.904Z,28.30
2022-09-24T02:36:32.763Z,28.40
2022-09-24T02:40:03.633Z,28.50
2022-09-24T02:43:41.410Z,27.80
2022-09-24T02:47:15.069Z,30.80
2022-09-24T02:51:18.814Z,31.00
2022-09-24T02:54:59.548Z,30.40
2022-09-24T02:58:46.015Z,33.80
2022-09-24T03:02:33.023Z,31.90
2022-09-24T03:06:37.693Z,34.00
2022-09-24T03:10:24.891Z,36.60
2022-09-24T03:14:01.334Z,36.30
2022-09-24T03:17:38.236Z,33.60
2022-09-24T03:21:34.626Z,35.20
2022-09-24T03:25:21.392Z,37.00
2022-09-24T03:29:26.097Z,36.40
2022-09-24T03:33:25.186Z,32.30
2022-09-24T03:37:19.136Z,36.90
2022-09-24T03:40:58.689Z,35.00
2022-09-24T03:44:53.834Z,40.00
2022-09-24T03:48:49.466Z,37.40
2022-09-24T03:52:29.672Z,30.00
2022-09-24T03:56:17.524Z,30.90
2022-09-24T04:00:21.279Z,37.70
2022-09-24T04:03:40.199Z,33.50
2022-09-24T04:07:43.964Z,34.70
2022-09-24T04:11:38.893Z,36.80
2022-09-24T04:15:42.682Z,39.60
2022-09-24T04:19:46.513Z,33.70
2022-09-24T04:23:50.576Z,31.10
2022-09-24T04:27:48.206Z,32.10
2022-09-24T04:31:34.313Z,34.90
2022-09-24T04:35:28.307Z,32.70
2022-09-24T04:39:29.374Z,34.80
2022-09-24T04:43:26.756Z,37.00
2022-09-24T04:47:24.656Z,32.10
2022-09-24T04:51:10.528Z,32.00
2022-09-24T04:54:44.681Z,30.80
2022-09-24T04:58:37.462Z,36.60
2022-09-24T05:02:41.363Z,31.30
2022-09-24T05:06:47.418Z,32.60
2022-09-24T05:10:50.078Z,28.60
2022-09-24T05:14:53.804Z,32.80
2022-09-24T05:18:44.268Z,34.00
2022-09-24T05:22:27.358Z,35.40
2022-09-24T05:26:20.833Z,31.60
2022-09-24T05:30:09.631Z,31.80
2022-09-24T05:34:08.497Z,30.30
2022-09-24T05:37:52.296Z,31.00
2022-09-24T05:41:55.192Z,33.70
2022-09-24T05:45:41.983Z,29.90
2022-09-24T05:49:27.046Z,31.60
2022-09-24T05:53:27.390Z,29.60
2022-09-24T05:57:22.563Z,30.20
2022-09-24T06:01:26.444Z,29.90
2022-09-24T06:05:30.316Z,32.50
2022-09-24T06:09:34.316Z,33.80
2022-09-24T06:13:22.709Z,32.10
2022-09-24T06:17:08.327Z,33.40
2022-09-24T06:21:05.536Z,32.20
2022-09-24T06:25:10.115Z,29.80
2022-09-24T06:29:14.252Z,31.60
2022-09-24T06:36:50.730Z,31.70
2022-09-24T06:40:39.604Z,32.00
2022-09-24T06:44:06.014Z,33.60
2022-09-24T06:47:47.355Z,33.50
2022-09-24T06:55:33.139Z,29.50
2022-09-24T06:59:36.819Z,26.80
2022-09-24T07:03:33.129Z,28.40
2022-09-24T07:07:55.112Z,26.20
2022-09-24T07:11:53.082Z,25.60
2022-09-24T07:15:48.213Z,23.20
2022-09-24T07:19:11.821Z,23.20
2022-09-24T07:22:52.170Z,21.60
2022-09-24T07:26:56.568Z,22.20
2022-09-24T07:31:00.539Z,20.70
2022-09-24T07:38:41.068Z,22.20
2022-09-24T07:42:36.972Z,21.20
2022-09-24T07:46:14.381Z,23.00
2022-09-24T07:50:00.902Z,25.40
2022-09-24T07:53:42.040Z,24.80
2022-09-24T07:57:42.540Z,20.30
2022-09-24T08:01:36.718Z,20.40
2022-09-24T08:05:40.577Z,18.00
2022-09-24T08:09:35.166Z,20.30
2022-09-24T08:13:38.952Z,22.80
2022-09-24T08:17:25.398Z,22.20
2022-09-24T08:21:11.870Z,22.50
2022-09-24T08:24:57.849Z,20.90
2022-09-24T08:28:44.156Z,23.20
2022-09-24T08:32:04.568Z,21.90
2022-09-24T08:35:42.482Z,20.60
2022-09-24T08:39:19.039Z,23.70
2022-09-24T08:43:17.898Z,22.80
2022-09-24T08:47:39.051Z,22.30
2022-09-24T08:51:19.149Z,18.80
2022-09-24T08:55:22.895Z,18.20
2022-09-24T08:59:06.132Z,22.20
2022-09-24T09:03:21.896Z,20.50
2022-09-24T09:06:58.229Z,21.60
2022-09-24T09:11:04.755Z,19.80
2022-09-24T09:15:07.028Z,15.30
2022-09-24T09:19:04.349Z,20.60
2022-09-24T09:22:38.842Z,18.30
2022-09-24T09:29:38.904Z,17.80
2022-09-24T09:33:27.339Z,20.70
2022-09-24T09:37:15.803Z,18.80
2022-09-24T09:41:06.592Z,14.20
2022-09-24T09:44:56.172Z,15.60
2022-09-24T09:48:51.903Z,15.20
2022-09-24T09:52:32.951Z,20.60
2022-09-24T09:56:11.702Z,14.00
2022-09-24T10:00:13.804Z,16.10
2022-09-24T10:03:54.615Z,15.50
2022-09-24T10:07:31.846Z,12.30
2022-09-24T10:11:15.532Z,12.30
2022-09-24T10:15:09.004Z,12.20
2022-09-24T10:19:08.269Z,11.40
2022-09-24T10:23:01.862Z,14.50
2022-09-24T10:27:05.717Z,17.20
2022-09-24T10:30:53.773Z,14.40
2022-09-24T10:34:47.673Z,14.20
2022-09-24T10:38:35.064Z,13.60
2022-09-24T10:42:28.781Z,14.90
2022-09-24T10:46:30.519Z,11.40
2022-09-24T10:50:25.271Z,8.00
2022-09-24T10:53:56.980Z,10.10
2022-09-24T10:57:17.269Z,12.60
2022-09-24T11:01:01.753Z,12.10
2022-09-24T11:04:35.110Z,12.50
2022-09-24T11:08:02.996Z,13.30
2022-09-24T11:11:55.967Z,11.20
2022-09-24T11:15:05.318Z,10.90
2022-09-24T11:18:38.251Z,7.10
2022-09-24T11:22:20.210Z,10.40
2022-09-24T11:26:22.515Z,8.20
2022-09-24T11:29:51.052Z,7.30
2022-09-24T11:33:17.290Z,11.80
2022-09-24T11:36:30.303Z,10.40
2022-09-24T11:40:04.360Z,10.80
2022-09-24T11:43:45.454Z,9.70
2022-09-24T11:46:51.903Z,8.80
2022-09-24T11:50:15.802Z,7.90
2022-09-24T11:53:34.105Z,7.60
2022-09-24T11:57:01.912Z,6.20
2022-09-24T12:00:20.492Z,7.40
2022-09-24T12:04:00.528Z,6.10
2022-09-24T12:08:04.269Z,5.10
2022-09-24T12:11:39.422Z,5.60
2022-09-24T12:15:17.451Z,8.40
2022-09-24T12:18:47.346Z,4.30
2022-09-24T12:22:18.065Z,7.00
2022-09-24T12:25:57.637Z,8.30
2022-09-24T12:30:02.979Z,4.10
2022-09-24T12:33:42.994Z,6.50
2022-09-24T12:36:58.225Z,3.90
2022-09-24T12:40:27.079Z,6.30
2022-09-24T12:44:10.777Z,6.80
2022-09-24T12:47:40.649Z,7.10
2022-09-24T12:51:24.476Z,7.30
2022-09-24T12:54:56.018Z,3.60
2022-09-24T12:58:37.130Z,6.50
2022-09-24T13:02:13.466Z,3.80
2022-09-24T13:05:24.889Z,5.30
2022-09-24T13:08:43.958Z,5.90
2022-09-24T13:12:09.552Z,4.20
2022-09-24T13:15:36.566Z,6.90
2022-09-24T13:19:11.682Z,6.80
2022-09-24T13:22:29.696Z,5.40
2022-09-24T13:25:59.300Z,3.70
2022-09-24T13:29:33.653Z,5.70
2022-09-24T13:33:02.437Z,5.70
2022-09-24T13:36:39.170Z,6.00
2022-09-24T13:40:23.387Z,7.60
2022-09-24T13:43:53.621Z,4.30
2022-09-24T13:47:41.598Z,5.10
2022-09-24T13:51:06.334Z,7.30
2022-09-24T13:55:00.799Z,5.60
2022-09-24T13:58:33.345Z,11.90
2022-09-24T14:02:13.399Z,7.50
2022-09-24T14:05:57.394Z,6.60
2022-09-24T14:10:12.643Z,5.10
2022-09-24T14:14:04.795Z,12.40
2022-09-24T14:17:58.473Z,9.80
2022-09-24T14:21:44.563Z,12.00
2022-09-24T14:25:41.829Z,12.40
2022-09-24T14:29:06.433Z,9.20
2022-09-24T14:33:00.405Z,8.20
2022-09-24T14:36:29.217Z,12.70
2022-09-24T14:39:57.046Z,9.20
2022-09-24T14:43:31.507Z,9.00
2022-09-24T14:47:21.869Z,8.10
2022-09-24T14:50:52.722Z,9.10
2022-09-24T14:54:43.484Z,11.50
2022-09-24T14:57:48.033Z,8.60
2022-09-24T15:01:00.245Z,9.00
2022-09-24T15:04:48.728Z,9.70
2022-09-24T15:08:04.858Z,11.70
2022-09-24T15:11:56.004Z,8.60
2022-09-24T15:15:46.477Z,9.00
2022-09-24T15:19:33.201Z,10.10
2022-09-24T15:23:16.957Z,12.80
2022-09-24T15:26:54.726Z,5.80
2022-09-24T15:30:44.693Z,6.60
2022-09-24T15:34:10.972Z,10.00
2022-09-24T15:38:06.176Z,7.40
2022-09-24T15:41:36.430Z,8.00
2022-09-24T15:44:40.186Z,17.40
2022-09-24T15:48:03.645Z,13.40
2022-09-24T15:51:50.881Z,10.50
2022-09-24T15:55:55.777Z,13.10
2022-09-24T16:02:54.037Z,14.90
2022-09-24T16:06:27.934Z,11.50
2022-09-24T16:10:17.370Z,16.60
2022-09-24T16:14:11.921Z,14.30
2022-09-24T16:17:53.168Z,15.00
2022-09-24T16:21:57.028Z,16.90
2022-09-24T16:29:44.796Z,14.80
2022-09-24T16:33:36.258Z,17.40
2022-09-24T16:37:39.970Z,20.70
2022-09-24T16:45:10.389Z,25.30
2022-09-24T16:48:54.576Z,17.20
2022-09-24T16:53:01.291Z,21.00
2022-09-24T16:56:32.864Z,23.50
2022-09-24T17:00:10.189Z,27.00
2022-09-24T17:03:47.671Z,23.40
2022-09-24T17:06:56.256Z,25.10
2022-09-24T17:10:18.235Z,24.50
2022-09-24T17:14:14.276Z,20.30
2022-09-24T17:17:19.118Z,22.60
2022-09-24T17:21:23.924Z,26.50
2022-09-24T17:24:39.826Z,24.60
2022-09-24T17:28:28.755Z,25.20
2022-09-24T17:31:55.594Z,38.70
2022-09-24T17:35:16.262Z,40.40
2022-09-24T17:38:59.905Z,40.00
2022-09-24T17:42:56.257Z,39.60
2022-09-24T17:46:36.881Z,40.00
2022-09-24T17:50:30.848Z,40.70
2022-09-24T17:54:23.408Z,48.80
2022-09-24T17:58:07.130Z,56.40
2022-09-24T18:05:28.243Z,56.60
2022-09-24T18:09:21.210Z,59.20
2022-09-24T18:13:24.936Z,70.80
2022-09-24T18:17:14.505Z,69.00
2022-09-24T18:20:54.917Z,62.70
2022-09-24T18:24:42.236Z,63.30
2022-09-24T18:28:28.311Z,62.70
2022-09-24T18:32:32.332Z,60.20
2022-09-24T18:36:26.977Z,66.70
2022-09-24T18:40:30.829Z,56.00
2022-09-24T18:44:27.406Z,68.20
2022-09-24T18:48:14.302Z,75.30
2022-09-24T18:52:30.214Z,80.20
2022-09-24T18:56:00.201Z,84.30
2022-09-24T19:00:06.724Z,76.10
2022-09-24T19:04:01.530Z,83.70
2022-09-24T19:08:04.008Z,84.90
2022-09-24T19:11:57.931Z,80.80
2022-09-24T19:15:55.483Z,76.80
2022-09-24T19:19:39.222Z,85.00
2022-09-24T19:23:02.871Z,88.20
2022-09-24T19:27:07.239Z,88.70
2022-09-24T19:30:58.871Z,82.30
2022-09-24T19:34:43.378Z,84.00
2022-09-24T19:38:42.005Z,83.00
2022-09-24T19:42:25.675Z,78.70
2022-09-24T19:45:40.873Z,77.90
2022-09-24T19:49:44.684Z,84.80
2022-09-24T19:53:29.426Z,84.40
2022-09-24T19:56:58.425Z,81.00
2022-09-24T20:00:53.383Z,81.50
2022-09-24T20:04:17.528Z,83.40
2022-09-24T20:08:12.957Z,83.40
2022-09-24T20:12:01.820Z,83.80
2022-09-24T20:15:57.172Z,93.00
2022-09-24T20:22:57.153Z,84.10
2022-09-24T20:26:59.010Z,81.50
2022-09-24T20:30:53.807Z,73.40
2022-09-24T20:34:06.738Z,75.80
2022-09-24T20:38:09.470Z,71.80
2022-09-24T20:42:02.487Z,75.20
2022-09-24T20:46:06.605Z,72.40
2022-09-24T20:53:43.936Z,86.50
2022-09-24T20:57:36.896Z,78.00
2022-09-24T21:01:40.785Z,83.50
2022-09-24T21:09:00.424Z,69.80
2022-09-24T21:13:03.325Z,74.60
2022-09-24T21:17:07.221Z,72.80
2022-09-24T21:20:49.047Z,73.50
2022-09-24T21:24:51.678Z,76.70
2022-09-24T21:28:55.427Z,74.70
2022-09-24T21:32:41.136Z,74.70
2022-09-24T21:36:41.291Z,75.50
2022-09-24T21:40:31.391Z,84.70
2022-09-24T21:47:58.491Z,82.00
2022-09-24T21:55:44.603Z,73.20
2022-09-24T21:59:46.946Z,76.90
2022-09-24T22:03:50.784Z,74.00
2022-09-24T22:07:37.458Z,77.40
2022-09-24T22:11:31.048Z,73.30
2022-09-24T22:15:34.799Z,74.70
2022-09-24T22:19:09.561Z,68.50
2022-09-24T22:23:12.765Z,67.10
2022-09-24T22:26:47.911Z,71.50
2022-09-24T22:30:44.822Z,66.20
2022-09-24T22:34:37.894Z,60.50
2022-09-24T22:38:31.503Z,62.60
2022-09-24T22:42:35.345Z,62.90
2022-09-24T22:46:29.613Z,62.80
2022-09-24T22:50:23.227Z,61.40
2022-09-24T22:54:20.258Z,61.60
2022-09-24T22:57:46.279Z,62.40
2022-09-24T23:01:50.079Z,57.70
2022-09-24T23:05:54.007Z,63.80
2022-09-24T23:09:24.610Z,54.50
2022-09-24T23:13:06.264Z,60.20
2022-09-24T23:16:47.365Z,59.70
2022-09-24T23:20:34.987Z,61.20
2022-09-24T23:24:24.353Z,52.50
2022-09-24T23:27:41.021Z,59.30
2022-09-24T23:31:16.251Z,59.00
2022-09-24T23:35:02.892Z,56.60
2022-09-24T23:38:55.890Z,55.10
2022-09-24T23:46:04.782Z,55.90
2022-09-24T23:49:58.660Z,54.80
2022-09-24T23:53:55.009Z,53.60
2022-09-24T23:57:37.524Z,57.30
